Time;durP1;ratioP1;P1;durP2;ratioP2;P2;SDS_P1;SDS_P2;PMS_P1;PMS_P2;Temp;Humidity;BMP_temperature;BMP_pressure;BME280_temperature;BME280_humidity;BME280_pressure;Samples;Min_cycle;Max_cycle;Signal;HPM_P1;HPM_P2
2022/08/07 00:01:17;;;;;;;;;;;22.30;58.70;;;;;;4986555;28;19917;-85
2022/08/07 00:03:43;;;;;;;;;;;22.20;59.00;;;;;;4986614;28;19921;-85
2022/08/07 00:06:08;;;;;;;;;;;22.20;59.00;;;;;;4986559;28;19910;-85
2022/08/07 00:08:35;;;;;;;;;;;22.20;59.00;;;;;;4986468;28;20298;-85
2022/08/07 00:11:01;;;;;;;;;;;22.10;59.10;;;;;;4978553;28;20004;-86
2022/08/07 00:13:27;;;;;;;;;;;22.10;59.10;;;;;;4982447;28;19917;-85
2022/08/07 00:15:53;;;;;;;;;;;22.10;59.30;;;;;;4986178;28;19909;-85
2022/08/07 00:18:20;;;;;;;;;;;22.10;59.30;;;;;;4985933;28;19909;-86
2022/08/07 00:20:48;;;;;;;;;;;22.00;59.10;;;;;;4986341;28;19910;-85
2022/08/07 00:23:13;;;;;;;;;;;21.90;59.70;;;;;;4968224;28;20004;-86
2022/08/07 00:25:39;;;;;;;;;;;21.90;59.80;;;;;;4985975;28;20060;-87
2022/08/07 00:28:04;;;;;;;;;;;21.80;59.80;;;;;;4986166;28;20000;-86
2022/08/07 00:30:30;;;;;;;;;;;21.90;59.80;;;;;;4985424;28;19916;-86
2022/08/07 00:32:56;;;;;;;;;;;21.90;59.70;;;;;;4981356;28;19906;-86
2022/08/07 00:35:22;;;;;;;;;;;21.90;59.50;;;;;;4985723;28;19925;-86
2022/08/07 00:37:47;;;;;;;;;;;21.80;59.70;;;;;;4967697;28;19917;-86
2022/08/07 00:40:13;;;;;;;;;;;21.80;59.70;;;;;;4985938;28;19909;-86
2022/08/07 00:42:40;;;;;;;;;;;21.80;59.80;;;;;;4985682;28;19937;-85
2022/08/07 00:45:06;;;;;;;;;;;21.70;60.00;;;;;;4980172;28;19910;-86
2022/08/07 00:47:31;;;;;;;;;;;21.60;60.00;;;;;;4977970;28;19910;-87
2022/08/07 00:49:57;;;;;;;;;;;21.60;59.90;;;;;;4985746;28;19912;-86
2022/08/07 00:52:23;;;;;;;;;;;21.60;60.00;;;;;;4985043;28;20009;-86
2022/08/07 00:54:48;;;;;;;;;;;21.60;60.30;;;;;;4985506;28;20009;-86
2022/08/07 00:57:15;;;;;;;;;;;21.50;60.10;;;;;;4967835;28;20101;-85
2022/08/07 00:59:41;;;;;;;;;;;21.50;60.20;;;;;;4985320;28;19920;-86
2022/08/07 01:02:08;;;;;;;;;;;21.50;60.30;;;;;;4985421;28;20381;-86
2022/08/07 01:04:33;;;;;;;;;;;21.40;60.70;;;;;;4985747;28;19960;-86
2022/08/07 01:07:00;;;;;;;;;;;21.30;60.60;;;;;;4984477;28;19925;-86
2022/08/07 01:09:26;;;;;;;;;;;21.30;60.60;;;;;;4985616;28;19933;-86
2022/08/07 01:11:51;;;;;;;;;;;21.30;60.80;;;;;;4955904;28;19910;-86
2022/08/07 01:14:18;;;;;;;;;;;21.20;60.80;;;;;;4967702;28;19965;-86
2022/08/07 01:16:44;;;;;;;;;;;21.20;60.90;;;;;;4985512;28;19917;-86
2022/08/07 01:19:10;;;;;;;;;;;21.20;60.90;;;;;;4985799;28;19910;-86
2022/08/07 01:21:36;;;;;;;;;;;21.10;60.90;;;;;;4985234;28;19910;-86
2022/08/07 01:24:02;;;;;;;;;;;21.10;60.90;;;;;;4967562;28;19917;-86
2022/08/07 01:26:28;;;;;;;;;;;21.10;60.90;;;;;;4985258;28;19906;-86
2022/08/07 01:28:54;;;;;;;;;;;21.10;60.90;;;;;;4984960;28;19928;-86
2022/08/07 01:31:20;;;;;;;;;;;21.00;60.90;;;;;;4967536;28;20307;-86
2022/08/07 01:33:46;;;;;;;;;;;21.10;60.90;;;;;;4984612;28;19990;-86
2022/08/07 01:36:11;;;;;;;;;;;20.90;61.10;;;;;;4984561;28;20413;-86
2022/08/07 01:38:38;;;;;;;;;;;21.00;61.20;;;;;;4984896;28;19910;-86
2022/08/07 01:41:05;;;;;;;;;;;20.90;61.10;;;;;;4985200;28;19938;-87
2022/08/07 01:43:31;;;;;;;;;;;20.90;61.20;;;;;;4984510;28;19910;-86
2022/08/07 01:45:57;;;;;;;;;;;20.90;61.20;;;;;;4972384;28;19921;-86
2022/08/07 01:48:23;;;;;;;;;;;20.80;61.30;;;;;;4983822;28;20787;-86
2022/08/07 01:50:54;;;;;;;;;;;20.70;61.50;;;;;;4984392;28;19910;-86
2022/08/07 01:53:21;;;;;;;;;;;20.70;61.60;;;;;;4966745;28;19914;-86
2022/08/07 01:55:48;;;;;;;;;;;20.60;61.70;;;;;;4984671;28;19921;-85
2022/08/07 01:58:16;;;;;;;;;;;20.60;61.90;;;;;;4987344;28;19972;-88
2022/08/07 02:00:43;;;;;;;;;;;20.60;62.50;;;;;;4988790;28;19910;-86
2022/08/07 02:03:10;;;;;;;;;;;20.50;62.00;;;;;;4988317;28;19981;-86
2022/08/07 02:05:38;;;;;;;;;;;20.50;62.20;;;;;;4988304;28;19917;-85
2022/08/07 02:08:09;;;;;;;;;;;20.40;62.30;;;;;;4988148;28;20390;-86
2022/08/07 02:10:35;;;;;;;;;;;20.30;62.30;;;;;;4984397;28;19910;-87
2022/08/07 02:13:01;;;;;;;;;;;20.40;62.50;;;;;;4962773;28;20041;-85
2022/08/07 02:15:28;;;;;;;;;;;20.30;62.70;;;;;;4988037;28;19923;-87
2022/08/07 02:17:54;;;;;;;;;;;20.30;62.60;;;;;;4988229;28;19910;-85
2022/08/07 02:20:21;;;;;;;;;;;20.20;62.70;;;;;;4987714;28;19992;-86
2022/08/07 02:22:48;;;;;;;;;;;20.20;63.00;;;;;;4988578;28;20154;-86
2022/08/07 02:25:15;;;;;;;;;;;20.10;63.20;;;;;;4988369;28;19909;-85
2022/08/07 02:27:41;;;;;;;;;;;20.00;63.60;;;;;;4987722;28;19932;-86
2022/08/07 02:30:07;;;;;;;;;;;20.00;63.70;;;;;;4970586;28;19910;-86
2022/08/07 02:32:35;;;;;;;;;;;20.00;63.70;;;;;;4972727;28;19921;-85
2022/08/07 02:35:03;;;;;;;;;;;19.90;63.60;;;;;;4978644;28;19918;-86
2022/08/07 02:37:30;;;;;;;;;;;19.90;63.50;;;;;;4979297;28;19910;-85
2022/08/07 02:39:56;;;;;;;;;;;19.90;63.50;;;;;;4983990;28;19929;-86
2022/08/07 02:42:22;;;;;;;;;;;19.80;63.80;;;;;;4988122;28;20551;-85
2022/08/07 02:44:49;;;;;;;;;;;19.80;63.80;;;;;;4970258;28;20388;-86
2022/08/07 02:47:15;;;;;;;;;;;19.90;63.70;;;;;;4956558;28;20490;-85
2022/08/07 02:49:42;;;;;;;;;;;19.80;63.70;;;;;;4969765;28;19910;-87
2022/08/07 02:52:08;;;;;;;;;;;19.80;63.70;;;;;;4969923;28;20294;-86
2022/08/07 02:54:39;;;;;;;;;;;19.70;64.00;;;;;;4987610;28;19930;-86
2022/08/07 02:57:06;;;;;;;;;;;19.60;64.20;;;;;;4987469;28;19916;-86
2022/08/07 02:59:32;;;;;;;;;;;19.60;64.90;;;;;;4987628;28;20307;-86
2022/08/07 03:01:58;;;;;;;;;;;19.60;64.30;;;;;;4987356;28;19914;-86
2022/08/07 03:04:24;;;;;;;;;;;19.60;64.50;;;;;;4974331;28;19916;-86
2022/08/07 03:06:51;;;;;;;;;;;19.50;64.50;;;;;;4987703;28;19909;-85
2022/08/07 03:09:20;;;;;;;;;;;19.40;64.60;;;;;;4986868;28;20275;-86
2022/08/07 03:11:46;;;;;;;;;;;19.40;64.60;;;;;;4984740;28;19973;-86
2022/08/07 03:14:12;;;;;;;;;;;19.40;64.80;;;;;;4986952;28;19918;-85
2022/08/07 03:16:37;;;;;;;;;;;19.40;64.70;;;;;;4969904;28;19917;-85
2022/08/07 03:19:03;;;;;;;;;;;19.30;65.20;;;;;;4986918;28;19910;-86
2022/08/07 03:21:29;;;;;;;;;;;19.30;65.10;;;;;;4987489;28;20768;-86
2022/08/07 03:23:55;;;;;;;;;;;19.20;65.50;;;;;;4987303;28;20268;-86
2022/08/07 03:26:23;;;;;;;;;;;19.10;65.40;;;;;;4987111;28;19910;-85
2022/08/07 03:28:49;;;;;;;;;;;19.20;65.30;;;;;;4987547;28;20294;-86
2022/08/07 03:31:18;;;;;;;;;;;19.10;65.30;;;;;;4987336;28;20028;-85
2022/08/07 03:33:45;;;;;;;;;;;19.10;65.60;;;;;;4987022;28;19917;-86
2022/08/07 03:36:13;;;;;;;;;;;19.00;65.90;;;;;;4986868;28;20128;-86
2022/08/07 03:38:39;;;;;;;;;;;19.00;65.90;;;;;;4975063;28;19909;-86
2022/08/07 03:41:04;;;;;;;;;;;19.00;65.70;;;;;;4987187;28;20001;-86
2022/08/07 03:43:31;;;;;;;;;;;19.00;65.60;;;;;;4969284;28;19913;-86
2022/08/07 03:45:56;;;;;;;;;;;19.00;65.60;;;;;;4969285;28;19910;-86
2022/08/07 03:48:22;;;;;;;;;;;19.00;65.70;;;;;;4986082;28;19941;-86
2022/08/07 03:50:48;;;;;;;;;;;19.00;65.50;;;;;;4986861;28;19910;-85
2022/08/07 03:53:14;;;;;;;;;;;18.90;65.70;;;;;;4969184;28;19909;-86
2022/08/07 03:55:41;;;;;;;;;;;18.90;65.80;;;;;;4986764;28;19922;-86
2022/08/07 03:58:06;;;;;;;;;;;18.80;65.70;;;;;;4986607;28;20028;-86
2022/08/07 04:00:32;;;;;;;;;;;18.80;65.80;;;;;;4986706;28;20020;-87
2022/08/07 04:02:58;;;;;;;;;;;18.70;65.90;;;;;;4986540;28;19910;-86
2022/08/07 04:05:24;;;;;;;;;;;18.70;65.90;;;;;;4986535;28;19957;-87
2022/08/07 04:07:49;;;;;;;;;;;18.70;65.90;;;;;;4968476;28;19910;-86
2022/08/07 04:10:15;;;;;;;;;;;18.60;66.10;;;;;;4984574;28;19909;-86
2022/08/07 04:12:41;;;;;;;;;;;18.60;66.10;;;;;;4974156;28;19983;-86
2022/08/07 04:15:07;;;;;;;;;;;18.60;66.40;;;;;;4986416;28;19918;-86
2022/08/07 04:17:32;;;;;;;;;;;18.50;66.50;;;;;;4968139;28;19910;-85
2022/08/07 04:19:58;;;;;;;;;;;18.50;66.40;;;;;;4985996;28;19909;-86
2022/08/07 04:22:24;;;;;;;;;;;18.50;66.30;;;;;;4968321;28;19910;-86
2022/08/07 04:24:50;;;;;;;;;;;18.50;66.60;;;;;;4986238;28;19925;-85
2022/08/07 04:27:16;;;;;;;;;;;18.40;66.60;;;;;;4986041;28;20450;-86
2022/08/07 04:29:45;;;;;;;;;;;18.40;66.50;;;;;;4985336;28;19909;-85
2022/08/07 04:32:11;;;;;;;;;;;18.40;67.10;;;;;;4985606;28;20008;-86
2022/08/07 04:34:37;;;;;;;;;;;18.40;66.80;;;;;;4985839;28;20709;-86
2022/08/07 04:37:04;;;;;;;;;;;18.40;66.50;;;;;;4978450;28;20294;-86
2022/08/07 04:39:30;;;;;;;;;;;18.30;66.80;;;;;;4980345;28;19911;-85
2022/08/07 04:41:55;;;;;;;;;;;18.40;66.70;;;;;;4985694;28;19916;-86
2022/08/07 04:44:21;;;;;;;;;;;18.30;66.80;;;;;;4985470;28;19945;-85
2022/08/07 04:46:46;;;;;;;;;;;18.30;67.10;;;;;;4985507;28;19955;-86
2022/08/07 04:49:24;;;;;;;;;;;18.30;66.90;;;;;;4985764;28;20429;-86
2022/08/07 04:52:02;;;;;;;;;;;18.30;66.90;;;;;;4985791;28;19914;-86
2022/08/07 04:54:39;;;;;;;;;;;18.20;67.10;;;;;;4985132;28;19921;-86
2022/08/07 04:57:16;;;;;;;;;;;18.20;67.00;;;;;;4985039;28;19921;-85
2022/08/07 04:59:50;;;;;;;;;;;18.30;67.00;;;;;;4984937;28;20000;-86
2022/08/07 05:02:28;;;;;;;;;;;18.80;65.50;;;;;;4984724;28;20016;-86
2022/08/07 05:05:16;;;;;;;;;;;19.10;64.60;;;;;;4985138;28;19909;-86
2022/08/07 05:08:01;;;;;;;;;;;19.50;63.60;;;;;;4985358;28;19917;-86
2022/08/07 05:10:32;;;;;;;;;;;19.70;63.00;;;;;;4982333;28;19910;-86
2022/08/07 05:12:59;;;;;;;;;;;20.10;62.30;;;;;;4975572;28;20040;-87
2022/08/07 05:15:25;;;;;;;;;;;20.30;61.40;;;;;;4984533;28;19917;-86
2022/08/07 05:18:11;;;;;;;;;;;20.50;61.10;;;;;;4985327;28;19910;-85
2022/08/07 05:20:39;;;;;;;;;;;20.50;60.80;;;;;;4967003;28;19913;-86
2022/08/07 05:23:08;;;;;;;;;;;21.00;60.20;;;;;;4984995;28;19916;-86
2022/08/07 05:25:35;;;;;;;;;;;21.20;59.40;;;;;;4984952;28;19956;-86
2022/08/07 05:28:01;;;;;;;;;;;21.40;59.10;;;;;;4984893;28;19913;-86
2022/08/07 05:30:28;;;;;;;;;;;21.80;58.70;;;;;;4985439;28;19910;-86
2022/08/07 05:32:54;;;;;;;;;;;21.80;58.70;;;;;;4984369;28;19932;-86
2022/08/07 05:35:20;;;;;;;;;;;21.70;58.70;;;;;;4984559;28;20371;-86
2022/08/07 05:37:46;;;;;;;;;;;22.30;57.70;;;;;;4953860;28;20287;-86
2022/08/07 05:40:12;;;;;;;;;;;22.70;57.00;;;;;;4967031;28;19909;-86
2022/08/07 05:42:38;;;;;;;;;;;22.40;57.10;;;;;;4966624;28;19917;-86
2022/08/07 05:45:04;;;;;;;;;;;22.60;56.60;;;;;;4984460;28;19910;-86
2022/08/07 05:47:30;;;;;;;;;;;22.50;56.60;;;;;;4984546;28;20692;-86
2022/08/07 05:49:56;;;;;;;;;;;23.00;56.30;;;;;;4984774;28;19916;-86
2022/08/07 05:52:22;;;;;;;;;;;23.30;56.10;;;;;;4984741;28;19916;-87
2022/08/07 05:54:48;;;;;;;;;;;24.00;55.00;;;;;;4984362;28;19922;-86
2022/08/07 05:57:13;;;;;;;;;;;24.10;54.70;;;;;;4984422;28;20446;-86
2022/08/07 05:59:40;;;;;;;;;;;24.20;54.70;;;;;;4967191;28;20575;-86
2022/08/07 06:02:07;;;;;;;;;;;24.70;54.40;;;;;;4984481;28;19910;-87
2022/08/07 06:04:36;;;;;;;;;;;24.70;53.40;;;;;;4984398;28;19937;-87
2022/08/07 06:07:04;;;;;;;;;;;24.90;53.70;;;;;;4966696;28;19910;-87
2022/08/07 06:09:33;;;;;;;;;;;24.80;53.60;;;;;;4984681;28;19956;-86
2022/08/07 06:11:58;;;;;;;;;;;24.60;53.80;;;;;;4971044;28;19941;-87
2022/08/07 06:14:24;;;;;;;;;;;25.00;53.50;;;;;;4984810;28;19918;-86
2022/08/07 06:16:50;;;;;;;;;;;24.90;53.30;;;;;;4984450;28;19949;-87
2022/08/07 06:19:16;;;;;;;;;;;25.20;52.60;;;;;;4984614;28;20367;-87
2022/08/07 06:21:42;;;;;;;;;;;25.40;52.30;;;;;;4984326;28;19910;-86
2022/08/07 06:24:08;;;;;;;;;;;25.70;52.80;;;;;;4983770;28;19949;-85
2022/08/07 06:26:34;;;;;;;;;;;25.60;52.20;;;;;;4983878;28;20668;-87
2022/08/07 06:28:59;;;;;;;;;;;25.90;52.00;;;;;;4984069;28;19910;-87
2022/08/07 06:31:25;;;;;;;;;;;26.20;51.50;;;;;;4984393;28;19909;-87
2022/08/07 06:33:51;;;;;;;;;;;26.60;50.90;;;;;;4966499;28;20317;-86
2022/08/07 06:36:16;;;;;;;;;;;26.90;50.70;;;;;;4982828;28;20362;-87
2022/08/07 06:38:43;;;;;;;;;;;27.30;50.50;;;;;;4972038;28;19909;-86
2022/08/07 06:41:11;;;;;;;;;;;27.10;50.60;;;;;;4984099;28;19910;-87
2022/08/07 06:43:37;;;;;;;;;;;27.20;50.10;;;;;;4983985;28;19957;-87
2022/08/07 06:46:03;;;;;;;;;;;27.20;50.50;;;;;;4987994;28;19910;-86
2022/08/07 06:48:29;;;;;;;;;;;27.80;49.70;;;;;;4987811;28;19923;-87
2022/08/07 06:50:57;;;;;;;;;;;28.00;49.30;;;;;;4987535;28;20421;-87
2022/08/07 06:53:23;;;;;;;;;;;28.20;49.40;;;;;;4969865;28;19914;-86
2022/08/07 06:55:49;;;;;;;;;;;29.10;48.30;;;;;;4987187;28;19921;-87
2022/08/07 06:58:15;;;;;;;;;;;28.20;48.10;;;;;;4987587;28;19909;-87
2022/08/07 07:00:41;;;;;;;;;;;28.80;48.20;;;;;;4970128;28;20327;-87
2022/08/07 07:03:08;;;;;;;;;;;28.30;48.30;;;;;;4987724;28;19910;-87
2022/08/07 07:05:33;;;;;;;;;;;28.40;48.10;;;;;;4987711;28;19909;-87
2022/08/07 07:07:59;;;;;;;;;;;28.90;47.70;;;;;;4987551;28;19909;-87
2022/08/07 07:10:29;;;;;;;;;;;29.30;48.10;;;;;;4984118;28;19918;-87
2022/08/07 07:12:57;;;;;;;;;;;28.90;47.50;;;;;;4959684;28;19945;-86
2022/08/07 07:15:30;;;;;;;;;;;29.10;47.70;;;;;;4987213;28;19937;-86
2022/08/07 07:17:59;;;;;;;;;;;29.40;47.40;;;;;;4987127;28;19917;-87
2022/08/07 07:20:44;;;;;;;;;;;29.50;46.80;;;;;;4969289;28;20275;-86
2022/08/07 07:23:10;;;;;;;;;;;30.40;46.50;;;;;;4987420;28;19964;-87
2022/08/07 07:25:37;;;;;;;;;;;30.40;46.70;;;;;;4986678;28;19956;-87
2022/08/07 07:28:11;;;;;;;;;;;31.10;45.80;;;;;;4987125;28;19949;-87
2022/08/07 07:30:39;;;;;;;;;;;30.20;47.20;;;;;;4987319;28;19916;-87
2022/08/07 07:33:05;;;;;;;;;;;30.50;46.30;;;;;;4986988;28;20004;-87
2022/08/07 07:35:32;;;;;;;;;;;30.80;45.90;;;;;;4986764;28;19933;-87
2022/08/07 07:37:59;;;;;;;;;;;30.70;46.10;;;;;;4973785;28;19910;-86
2022/08/07 07:40:25;;;;;;;;;;;31.00;45.40;;;;;;4986489;28;19972;-87
2022/08/07 07:42:52;;;;;;;;;;;31.40;45.20;;;;;;4986900;28;19914;-87
2022/08/07 07:45:19;;;;;;;;;;;31.80;45.10;;;;;;4987137;28;19916;-87
2022/08/07 07:47:45;;;;;;;;;;;31.50;44.60;;;;;;4969470;28;19916;-87
2022/08/07 07:50:12;;;;;;;;;;;32.70;44.00;;;;;;4987054;28;20443;-86
2022/08/07 07:52:39;;;;;;;;;;;32.40;44.00;;;;;;4987047;28;19976;-87
2022/08/07 07:55:06;;;;;;;;;;;32.00;44.20;;;;;;4985727;28;19922;-87
2022/08/07 07:57:32;;;;;;;;;;;33.00;42.80;;;;;;4986202;28;19964;-87
2022/08/07 07:59:59;;;;;;;;;;;33.00;43.20;;;;;;4986465;28;19916;-87
2022/08/07 08:02:26;;;;;;;;;;;33.30;43.40;;;;;;4968860;28;19909;-87
2022/08/07 08:04:52;;;;;;;;;;;33.00;43.20;;;;;;4986625;28;20458;-86
2022/08/07 08:07:18;;;;;;;;;;;33.20;43.60;;;;;;4968362;28;19965;-86
2022/08/07 08:09:44;;;;;;;;;;;33.30;43.60;;;;;;4986771;28;19910;-87
2022/08/07 08:12:10;;;;;;;;;;;34.40;42.50;;;;;;4972600;28;19906;-87
2022/08/07 08:14:35;;;;;;;;;;;33.70;43.30;;;;;;4985981;28;19924;-87
2022/08/07 08:17:01;;;;;;;;;;;34.60;42.30;;;;;;4986148;28;19914;-87
2022/08/07 08:19:28;;;;;;;;;;;34.30;42.00;;;;;;4986530;28;19988;-87
2022/08/07 08:27:32;;;;;;;;;;;34.60;42.50;;;;;;4986113;28;19917;-87
2022/08/07 08:30:01;;;;;;;;;;;34.60;41.90;;;;;;4986240;28;20004;-87
2022/08/07 08:32:28;;;;;;;;;;;35.00;42.40;;;;;;4968351;28;19933;-87
2022/08/07 08:34:56;;;;;;;;;;;35.40;41.90;;;;;;4985913;28;20666;-86
2022/08/07 08:37:22;;;;;;;;;;;35.20;41.10;;;;;;4975733;28;19949;-87
2022/08/07 08:39:51;;;;;;;;;;;35.50;41.80;;;;;;4983068;28;19932;-88
2022/08/07 08:42:32;;;;;;;;;;;35.40;41.60;;;;;;4985811;28;19909;-86
2022/08/07 08:45:36;;;;;;;;;;;36.20;41.10;;;;;;4985502;28;19917;-87
2022/08/07 08:48:08;;;;;;;;;;;37.30;40.90;;;;;;4924020;29;19910;-87
2022/08/07 08:50:39;;;;;;;;;;;36.30;41.00;;;;;;4924792;29;20691;-87
2022/08/07 08:53:21;;;;;;;;;;;36.10;41.30;;;;;;4908487;29;19957;-87
2022/08/07 08:55:48;;;;;;;;;;;37.00;40.40;;;;;;4924975;29;20463;-87
2022/08/07 08:58:26;;;;;;;;;;;37.30;39.60;;;;;;4924366;29;20009;-87
2022/08/07 09:00:57;;;;;;;;;;;38.00;39.20;;;;;;4924717;29;19911;-87
2022/08/07 09:03:29;;;;;;;;;;;37.30;40.10;;;;;;4924201;29;19910;-87
2022/08/07 09:05:58;;;;;;;;;;;36.90;40.00;;;;;;4923904;29;20054;-87
2022/08/07 09:08:30;;;;;;;;;;;37.50;39.10;;;;;;4923434;29;20013;-86
2022/08/07 09:10:58;;;;;;;;;;;38.10;38.50;;;;;;4917488;29;19976;-86
2022/08/07 09:13:33;;;;;;;;;;;38.20;39.00;;;;;;4901620;29;19997;-87
2022/08/07 09:16:09;;;;;;;;;;;38.50;39.10;;;;;;4924177;29;19923;-88
2022/08/07 09:18:48;;;;;;;;;;;39.30;38.50;;;;;;4947865;28;19910;-88
2022/08/07 09:21:33;;;;;;;;;;;39.20;38.90;;;;;;4984665;28;19910;-86
2022/08/07 09:24:01;;;;;;;;;;;38.60;38.40;;;;;;4984651;28;19905;-87
2022/08/07 09:26:52;;;;;;;;;;;37.80;39.00;;;;;;4984730;28;20797;-87
2022/08/07 09:29:23;;;;;;;;;;;38.40;38.80;;;;;;4984646;28;19909;-87
2022/08/07 09:32:01;;;;;;;;;;;39.80;38.60;;;;;;4985008;28;19956;-87
2022/08/07 09:34:31;;;;;;;;;;;40.40;38.10;;;;;;4984054;28;19940;-87
2022/08/07 09:37:01;;;;;;;;;;;39.20;37.80;;;;;;4978135;28;19910;-88
2022/08/07 09:39:47;;;;;;;;;;;40.00;38.00;;;;;;4978716;28;19916;-87
2022/08/07 09:42:32;;;;;;;;;;;39.30;37.60;;;;;;4983888;28;19938;-87
2022/08/07 09:45:00;;;;;;;;;;;40.60;38.60;;;;;;4984376;28;19920;-86
2022/08/07 09:47:36;;;;;;;;;;;40.70;37.30;;;;;;4984734;28;19960;-86
2022/08/07 09:50:02;;;;;;;;;;;38.50;37.30;;;;;;4984171;28;20017;-87
2022/08/07 09:52:39;;;;;;;;;;;38.30;37.90;;;;;;4984250;28;20016;-87
2022/08/07 09:55:17;;;;;;;;;;;39.50;37.50;;;;;;4963405;28;20071;-87
2022/08/07 09:58:01;;;;;;;;;;;39.60;38.30;;;;;;4965115;28;19914;-87
2022/08/07 10:00:47;;;;;;;;;;;40.70;36.80;;;;;;4964825;28;19910;-86
2022/08/07 10:03:13;;;;;;;;;;;40.20;37.00;;;;;;4963974;28;20370;-87
2022/08/07 10:05:38;;;;;;;;;;;40.50;37.50;;;;;;4965533;28;19945;-87
2022/08/07 10:08:10;;;;;;;;;;;40.60;36.60;;;;;;4963867;28;19933;-87
2022/08/07 10:10:54;;;;;;;;;;;39.80;37.30;;;;;;4965265;28;19914;-86
2022/08/07 10:13:36;;;;;;;;;;;39.90;37.00;;;;;;4965110;28;19945;-87
2022/08/07 10:16:01;;;;;;;;;;;40.10;37.70;;;;;;4965097;28;20024;-87
2022/08/07 10:18:46;;;;;;;;;;;41.30;37.40;;;;;;4965828;28;20375;-87
2022/08/07 10:21:23;;;;;;;;;;;39.70;37.00;;;;;;4969009;28;19957;-87
2022/08/07 10:24:03;;;;;;;;;;;39.60;38.70;;;;;;4967183;28;19976;-87
2022/08/07 10:26:47;;;;;;;;;;;39.30;37.90;;;;;;4969108;28;20012;-87
2022/08/07 10:29:27;;;;;;;;;;;38.10;37.80;;;;;;4968737;28;19917;-87
2022/08/07 10:31:56;;;;;;;;;;;36.60;38.60;;;;;;4967266;28;19910;-87
2022/08/07 10:34:32;;;;;;;;;;;36.00;39.50;;;;;;4968638;28;19922;-86
2022/08/07 10:37:07;;;;;;;;;;;35.80;39.80;;;;;;4975375;28;19917;-86
2022/08/07 10:39:34;;;;;;;;;;;35.50;41.00;;;;;;4973511;28;20056;-87
2022/08/07 10:42:10;;;;;;;;;;;34.20;41.60;;;;;;4969040;28;20372;-87
2022/08/07 10:44:49;;;;;;;;;;;33.20;42.60;;;;;;4967427;28;19910;-87
2022/08/07 10:47:23;;;;;;;;;;;33.70;42.80;;;;;;4968341;28;20276;-87
2022/08/07 10:49:52;;;;;;;;;;;33.70;43.00;;;;;;4967317;28;20017;-87
2022/08/07 10:52:20;;;;;;;;;;;33.40;43.70;;;;;;4968797;28;19977;-87
2022/08/07 10:54:55;;;;;;;;;;;33.80;43.90;;;;;;4973505;28;20708;-87
2022/08/07 10:57:30;;;;;;;;;;;33.70;43.80;;;;;;4970263;28;20489;-87
2022/08/07 11:00:02;;;;;;;;;;;32.80;43.50;;;;;;4987910;28;19909;-87
2022/08/07 11:02:38;;;;;;;;;;;32.60;43.50;;;;;;4987598;28;20351;-86
2022/08/07 11:05:21;;;;;;;;;;;32.70;44.20;;;;;;4987482;28;19909;-87
2022/08/07 11:07:53;;;;;;;;;;;32.30;43.50;;;;;;4987477;28;19909;-86
2022/08/07 11:10:22;;;;;;;;;;;32.00;43.30;;;;;;4985319;28;19916;-87
2022/08/07 11:12:57;;;;;;;;;;;32.30;44.50;;;;;;4976126;28;19916;-86
2022/08/07 11:15:24;;;;;;;;;;;32.00;43.30;;;;;;4987087;28;19917;-86
2022/08/07 11:17:49;;;;;;;;;;;32.30;43.40;;;;;;4987110;28;20582;-87
2022/08/07 11:20:15;;;;;;;;;;;32.80;43.00;;;;;;4987648;28;19916;-87
2022/08/07 11:22:45;;;;;;;;;;;32.90;43.50;;;;;;4969636;28;19914;-86
2022/08/07 11:25:29;;;;;;;;;;;32.90;43.30;;;;;;4987216;28;20718;-87
2022/08/07 11:28:05;;;;;;;;;;;32.60;42.60;;;;;;4961895;28;20274;-87
2022/08/07 11:30:33;;;;;;;;;;;31.80;42.50;;;;;;4968067;28;20405;-86
2022/08/07 11:33:07;;;;;;;;;;;31.90;44.60;;;;;;4980358;28;19964;-86
2022/08/07 11:35:46;;;;;;;;;;;32.30;43.70;;;;;;4980898;28;19918;-86
2022/08/07 11:38:25;;;;;;;;;;;32.10;43.80;;;;;;4973568;28;19920;-86
2022/08/07 11:41:17;;;;;;;;;;;32.00;42.80;;;;;;4987076;28;19924;-87
2022/08/07 11:43:50;;;;;;;;;;;32.20;44.30;;;;;;4983613;28;19910;-87
2022/08/07 11:46:19;;;;;;;;;;;32.00;43.00;;;;;;4986167;28;19909;-87
2022/08/07 11:48:56;;;;;;;;;;;31.90;42.60;;;;;;4968999;28;19917;-87
2022/08/07 11:51:22;;;;;;;;;;;31.40;43.30;;;;;;4986575;28;19910;-88
2022/08/07 11:54:00;;;;;;;;;;;31.80;42.20;;;;;;4969156;28;19932;-86
2022/08/07 11:56:31;;;;;;;;;;;31.60;44.80;;;;;;4986479;28;19922;-87
2022/08/07 11:59:09;;;;;;;;;;;31.90;43.50;;;;;;4960261;28;19921;-87
2022/08/07 12:01:38;;;;;;;;;;;32.00;44.30;;;;;;4986176;28;19988;-86
2022/08/07 12:04:23;;;;;;;;;;;31.40;41.70;;;;;;4986644;28;20009;-87
2022/08/07 12:06:53;;;;;;;;;;;31.40;41.90;;;;;;4986373;28;19933;-86
2022/08/07 12:09:24;;;;;;;;;;;31.20;41.50;;;;;;4986580;28;20024;-86
2022/08/07 12:12:00;;;;;;;;;;;31.70;42.00;;;;;;4972894;28;19917;-86
2022/08/07 12:14:28;;;;;;;;;;;31.50;41.40;;;;;;4968281;28;19918;-86
2022/08/07 12:16:57;;;;;;;;;;;31.50;41.40;;;;;;4986221;28;20754;-86
2022/08/07 12:19:28;;;;;;;;;;;31.00;42.10;;;;;;4968668;28;20196;-87
2022/08/07 12:22:03;;;;;;;;;;;30.90;42.40;;;;;;4986031;28;20437;-87
2022/08/07 12:24:28;;;;;;;;;;;31.00;42.80;;;;;;4960424;28;19910;-87
2022/08/07 12:27:20;;;;;;;;;;;31.20;42.30;;;;;;4968564;28;19912;-86
2022/08/07 12:29:59;;;;;;;;;;;31.20;41.80;;;;;;4966214;28;19988;-86
2022/08/07 12:32:43;;;;;;;;;;;31.10;41.20;;;;;;4986159;28;19917;-86
2022/08/07 12:35:11;;;;;;;;;;;31.00;41.70;;;;;;4985752;28;20697;-87
2022/08/07 12:37:38;;;;;;;;;;;31.10;42.10;;;;;;4973672;28;19921;-87
2022/08/07 12:40:05;;;;;;;;;;;31.10;42.70;;;;;;4984973;28;19917;-86
2022/08/07 12:42:32;;;;;;;;;;;31.20;42.80;;;;;;4984954;28;19920;-86
2022/08/07 12:44:59;;;;;;;;;;;30.80;42.90;;;;;;4985734;28;19921;-86
2022/08/07 12:47:25;;;;;;;;;;;31.00;41.90;;;;;;4986003;28;19905;-86
2022/08/07 12:50:03;;;;;;;;;;;31.20;41.90;;;;;;4985975;28;19913;-86
2022/08/07 12:52:46;;;;;;;;;;;31.00;42.00;;;;;;4985980;28;20282;-87
2022/08/07 12:55:35;;;;;;;;;;;30.90;42.30;;;;;;4985551;28;20559;-87
2022/08/07 12:58:01;;;;;;;;;;;30.90;42.70;;;;;;4967919;28;20489;-87
2022/08/07 13:00:52;;;;;;;;;;;31.00;42.90;;;;;;4985653;28;19916;-87
2022/08/07 13:03:26;;;;;;;;;;;31.00;42.80;;;;;;4965431;28;19916;-87
2022/08/07 13:06:07;;;;;;;;;;;30.90;42.70;;;;;;4985834;28;19920;-86
2022/08/07 13:08:47;;;;;;;;;;;30.80;42.90;;;;;;4984992;28;19960;-86
2022/08/07 13:11:13;;;;;;;;;;;30.70;42.60;;;;;;4975937;28;19910;-87
2022/08/07 13:14:11;;;;;;;;;;;30.90;43.30;;;;;;4962603;28;19909;-87
2022/08/07 13:16:36;;;;;;;;;;;31.00;41.90;;;;;;4924340;29;19918;-86
2022/08/07 13:19:21;;;;;;;;;;;31.30;42.20;;;;;;4924240;29;19911;-86
2022/08/07 13:21:53;;;;;;;;;;;30.90;42.30;;;;;;4924567;29;20762;-87
2022/08/07 13:24:19;;;;;;;;;;;31.00;41.80;;;;;;4908488;29;19911;-86
2022/08/07 13:26:48;;;;;;;;;;;31.10;42.30;;;;;;4923621;29;19921;-86
2022/08/07 13:29:14;;;;;;;;;;;31.30;42.10;;;;;;4923686;29;19911;-86
2022/08/07 13:31:41;;;;;;;;;;;31.10;41.60;;;;;;4924001;29;20403;-87
2022/08/07 13:34:10;;;;;;;;;;;30.90;40.90;;;;;;4923910;29;19990;-87
2022/08/07 13:36:40;;;;;;;;;;;30.90;41.40;;;;;;4924043;29;19957;-86
2022/08/07 13:39:09;;;;;;;;;;;30.90;41.60;;;;;;4924361;29;19911;-87
2022/08/07 13:41:47;;;;;;;;;;;31.20;40.10;;;;;;4923740;29;19910;-88
2022/08/07 13:44:15;;;;;;;;;;;30.90;39.80;;;;;;4924174;29;19911;-87
2022/08/07 13:46:43;;;;;;;;;;;31.20;39.70;;;;;;4923443;29;19914;-87
2022/08/07 13:49:10;;;;;;;;;;;30.90;39.10;;;;;;4923746;29;19917;-86
2022/08/07 13:51:38;;;;;;;;;;;31.00;40.10;;;;;;4937574;28;19910;-86
2022/08/07 13:54:08;;;;;;;;;;;30.80;40.00;;;;;;4984243;28;19963;-86
2022/08/07 13:56:35;;;;;;;;;;;30.80;40.10;;;;;;4944094;28;19922;-87
2022/08/07 13:59:01;;;;;;;;;;;31.00;40.90;;;;;;4946008;28;20373;-86
2022/08/07 14:01:29;;;;;;;;;;;31.00;40.80;;;;;;4945567;28;19936;-86
2022/08/07 14:03:55;;;;;;;;;;;31.10;40.50;;;;;;4945974;28;19992;-86
2022/08/07 14:06:21;;;;;;;;;;;31.00;40.60;;;;;;4945883;28;20557;-86
2022/08/07 14:08:49;;;;;;;;;;;31.30;40.30;;;;;;4945560;28;19989;-86
2022/08/07 14:11:15;;;;;;;;;;;31.20;39.80;;;;;;4937963;29;20299;-86
2022/08/07 14:13:41;;;;;;;;;;;30.90;40.10;;;;;;4945780;28;19911;-86
2022/08/07 14:16:10;;;;;;;;;;;31.00;40.00;;;;;;4945790;28;19918;-86
2022/08/07 14:18:43;;;;;;;;;;;30.90;39.40;;;;;;4944085;28;20351;-86
2022/08/07 14:21:13;;;;;;;;;;;30.70;39.70;;;;;;4945479;28;19910;-86
2022/08/07 14:23:45;;;;;;;;;;;30.70;40.00;;;;;;4945608;28;19922;-86
2022/08/07 14:26:13;;;;;;;;;;;30.70;39.70;;;;;;4945494;28;20083;-86
2022/08/07 14:28:40;;;;;;;;;;;30.90;39.30;;;;;;4945933;28;19910;-86
2022/08/07 14:31:06;;;;;;;;;;;31.00;39.20;;;;;;4945393;28;19917;-86
2022/08/07 14:33:33;;;;;;;;;;;30.90;38.90;;;;;;4945813;28;19911;-86
2022/08/07 14:35:59;;;;;;;;;;;30.80;39.10;;;;;;4945769;28;19919;-86